Terminal Aerodrome Forecast
Issued by NWS

Home | Current Version | Previous Version | Text Only | Print | Product List | Glossary On
Versions: 1 2 3 4 5 6 7 8 9 10 11 12
000
FTUS41 KBTV 241100
TAFSLK
TAF
KSLK 241126Z 2412/2512 32008G15KT P6SM SKC
     FM241400 33014G20KT P6SM SCT050
     FM242300 32007KT P6SM SKC
     FM250100 VRB03KT P6SM SKC=

USA.gov is the U.S. government's official web portal to all federal, state and local government web resources and services.